北京 の空港の天気 - METARとTAF

北京首都国際空港 ( ZBAA / PEK ) - 中国 北京市
飛行場実況気象(Metar)
観測時間08/05 09:00 CST (08/05 01:00 UTC)
風向・風速北 2m/s
視程10km以上
天気現象
なし
気温27℃
湿度66%
気圧1006hPa
METARZBAA 050100Z 01002MPS CAVOK 27/20 Q1006 NOSIG
過去の天気等 Google飛行場航空写真 Wunderground天気予報

過去48時間のMETAR

飛行場予報(TAF)
発表時間: 8/05 05:20 CST (8/04 21:20 UTC)
予報対象時間: 5日8時 CST ~ 6日8時 CST
風向・風速南南東 4m/s
視程10km以上
なし
TAF ZBAA 042120Z 0500/0524 15004MPS CAVOK TX30/0507Z TN23/0521Z